Time;durP1;ratioP1;P1;durP2;ratioP2;P2;SDS_P1;SDS_P2;PMS_P1;PMS_P2;Temp;Humidity;BMP_temperature;BMP_pressure;BME280_temperature;BME280_humidity;BME280_pressure;Samples;Min_cycle;Max_cycle;Signal;HPM_P1;HPM_P2
2022/06/28 00:00:20;;;;;;;1.95;1.30;;;23.50;60.90;;;;;;5026886;28;20068;-62
2022/06/28 00:02:46;;;;;;;1.63;1.02;;;23.50;60.80;;;;;;5029127;28;20125;-62
2022/06/28 00:05:12;;;;;;;1.30;1.20;;;23.50;60.80;;;;;;5027040;28;20870;-63
2022/06/28 00:07:38;;;;;;;1.23;1.13;;;23.50;60.80;;;;;;5027097;28;20038;-61
2022/06/28 00:10:05;;;;;;;1.42;1.20;;;23.50;60.90;;;;;;5013828;28;20045;-61
2022/06/28 00:12:31;;;;;;;1.38;1.23;;;23.50;60.80;;;;;;4998957;28;20073;-62
2022/06/28 00:17:41;;;;;;;1.08;1.05;;;23.50;61.50;;;;;;5031955;28;20045;-61
2022/06/28 00:20:08;;;;;;;1.58;1.27;;;23.50;60.70;;;;;;5032949;28;20037;-62
2022/06/28 00:22:33;;;;;;;1.65;1.30;;;23.50;60.70;;;;;;5035017;28;20065;-61
2022/06/28 00:24:59;;;;;;;1.23;1.13;;;23.50;60.70;;;;;;5032245;28;20504;-63
2022/06/28 00:27:25;;;;;;;4.03;1.45;;;23.50;60.60;;;;;;5029301;28;20647;-61
2022/06/28 00:29:50;;;;;;;1.20;1.10;;;23.40;60.50;;;;;;5033094;28;20037;-62
2022/06/28 00:32:16;;;;;;;1.67;1.17;;;23.50;60.60;;;;;;5012661;28;20153;-62
2022/06/28 00:34:41;;;;;;;1.58;1.17;;;23.40;60.40;;;;;;5032180;28;20132;-62
2022/06/28 00:37:07;;;;;;;1.20;1.10;;;23.40;61.20;;;;;;5031612;28;20101;-61
2022/06/28 00:39:33;;;;;;;2.72;1.50;;;23.40;60.40;;;;;;5032459;28;20048;-62
2022/06/28 00:41:59;;;;;;;1.35;1.25;;;23.40;60.30;;;;;;5032116;28;20152;-61
2022/06/28 00:44:24;;;;;;;1.27;1.10;;;23.40;60.40;;;;;;5030946;28;20048;-62
2022/06/28 00:46:51;;;;;;;1.52;1.00;;;23.50;60.40;;;;;;5031497;28;20041;-63
2022/06/28 00:49:17;;;;;;;1.33;1.10;;;23.40;60.30;;;;;;5032440;28;20396;-61
2022/06/28 00:51:42;;;;;;;1.48;1.05;;;23.40;60.20;;;;;;5034119;28;20602;-62
2022/06/28 00:54:08;;;;;;;1.45;1.35;;;23.40;60.20;;;;;;5031577;28;20057;-62
2022/06/28 00:56:34;;;;;;;1.77;1.23;;;23.40;60.10;;;;;;5028703;28;20040;-61
2022/06/28 00:59:01;;;;;;;1.92;1.30;;;23.40;60.10;;;;;;5029883;28;20096;-61
2022/06/28 01:01:27;;;;;;;1.30;1.10;;;23.40;60.10;;;;;;5010506;28;20123;-62
2022/06/28 01:03:55;;;;;;;1.50;1.08;;;23.40;60.10;;;;;;5031050;28;20077;-62
2022/06/28 01:06:21;;;;;;;1.38;1.27;;;23.40;60.00;;;;;;5030914;28;20052;-62
2022/06/28 01:08:47;;;;;;;1.48;1.10;;;23.40;60.00;;;;;;5030316;28;20155;-62
2022/06/28 01:11:20;;;;;;;1.67;1.25;;;23.40;60.00;;;;;;5030050;28;20037;-61
2022/06/28 01:13:52;;;;;;;1.10;1.10;;;23.40;60.00;;;;;;5031084;28;20112;-61
2022/06/28 01:16:19;;;;;;;1.40;1.30;;;23.40;59.90;;;;;;5013891;28;20048;-62
2022/06/28 01:18:46;;;;;;;1.63;1.17;;;23.40;59.90;;;;;;5031880;28;20037;-61
2022/06/28 01:21:13;;;;;;;2.85;1.35;;;23.40;59.90;;;;;;5029924;28;20084;-63
2022/06/28 01:23:42;;;;;;;1.13;1.00;;;23.40;59.90;;;;;;5030576;28;20120;-62
2022/06/28 01:26:08;;;;;;;1.00;1.00;;;23.40;59.80;;;;;;5028821;28;20029;-62
2022/06/28 01:28:35;;;;;;;1.27;1.17;;;23.40;59.80;;;;;;5013598;28;20048;-64
2022/06/28 01:31:01;;;;;;;1.50;1.10;;;23.40;59.80;;;;;;5011147;28;20037;-62
2022/06/28 01:33:27;;;;;;;1.10;1.00;;;23.40;59.70;;;;;;5029302;28;20175;-64
2022/06/28 01:35:53;;;;;;;1.52;1.30;;;23.40;60.40;;;;;;5029214;28;20029;-63
2022/06/28 01:38:18;;;;;;;1.33;1.17;;;23.40;59.70;;;;;;5012143;28;20037;-62
2022/06/28 01:40:46;;;;;;;1.30;1.00;;;23.40;59.60;;;;;;5011749;28;20048;-62
2022/06/28 01:43:13;;;;;;;1.20;1.10;;;23.40;59.70;;;;;;4994018;28;20060;-64
2022/06/28 01:45:41;;;;;;;1.65;1.20;;;23.30;59.60;;;;;;5030027;28;20083;-64
2022/06/28 01:48:07;;;;;;;1.35;1.10;;;23.30;60.20;;;;;;5031854;28;20045;-64
2022/06/28 01:50:33;;;;;;;1.33;1.00;;;23.30;59.50;;;;;;5012398;28;20038;-62
2022/06/28 01:52:58;;;;;;;1.75;1.27;;;23.30;59.50;;;;;;5030260;28;20567;-64
2022/06/28 01:55:24;;;;;;;1.85;1.30;;;23.30;59.50;;;;;;5031215;28;20801;-63
2022/06/28 01:57:50;;;;;;;1.42;0.93;;;23.30;59.50;;;;;;5030458;28;20037;-63
2022/06/28 02:00:16;;;;;;;2.08;1.05;;;23.30;59.40;;;;;;5007027;28;20041;-63
2022/06/28 02:02:42;;;;;;;1.20;1.10;;;23.40;59.50;;;;;;5030458;28;20124;-63
2022/06/28 02:05:08;;;;;;;2.17;1.02;;;23.30;59.30;;;;;;5011482;28;20037;-62
2022/06/28 02:07:34;;;;;;;1.20;1.05;;;23.30;59.40;;;;;;5032780;28;20083;-62
2022/06/28 02:10:00;;;;;;;2.15;1.10;;;23.30;59.30;;;;;;5008726;28;20395;-61
2022/06/28 02:12:28;;;;;;;1.73;1.10;;;23.30;59.20;;;;;;5010843;28;20037;-62
2022/06/28 02:14:56;;;;;;;1.67;1.20;;;23.30;59.30;;;;;;5032316;28;20041;-62
2022/06/28 02:17:21;;;;;;;1.20;1.10;;;23.30;59.20;;;;;;5010386;28;20163;-64
2022/06/28 02:19:47;;;;;;;1.70;1.20;;;23.30;59.20;;;;;;5011602;28;20149;-63
2022/06/28 02:22:13;;;;;;;1.77;1.10;;;23.30;59.20;;;;;;5030972;28;20041;-62
2022/06/28 02:24:39;;;;;;;1.92;1.33;;;23.30;59.10;;;;;;4995976;28;20604;-61
2022/06/28 02:27:05;;;;;;;1.45;1.00;;;23.30;59.10;;;;;;5029725;28;20043;-63
2022/06/28 02:29:31;;;;;;;1.60;1.10;;;23.30;59.10;;;;;;5014170;28;20045;-62
2022/06/28 02:31:57;;;;;;;1.05;1.00;;;23.30;59.00;;;;;;5013014;28;20061;-63
2022/06/28 02:42:36;;;;;;;1.23;1.10;;;23.30;58.90;;;;;;5030836;28;20041;-65
2022/06/28 02:45:02;;;;;;;2.85;1.50;;;23.30;58.90;;;;;;5012901;28;20045;-63
2022/06/28 02:47:28;;;;;;;1.27;1.17;;;23.30;58.90;;;;;;5030059;28;20049;-64
2022/06/28 02:49:53;;;;;;;1.13;1.02;;;23.30;58.90;;;;;;5011293;28;20829;-62
2022/06/28 02:52:19;;;;;;;1.55;1.30;;;23.30;58.80;;;;;;5031553;28;20493;-62
2022/06/28 02:54:45;;;;;;;2.20;1.10;;;23.20;58.80;;;;;;5029893;28;20044;-61
2022/06/28 02:57:10;;;;;;;1.98;1.50;;;23.30;58.80;;;;;;5030176;28;20056;-63
2022/06/28 02:59:36;;;;;;;2.05;1.17;;;23.30;58.70;;;;;;5014023;28;20453;-62
2022/06/28 03:02:01;;;;;;;2.22;1.10;;;23.30;58.70;;;;;;5030171;28;20119;-62
2022/06/28 03:04:27;;;;;;;1.60;1.50;;;23.20;58.70;;;;;;5025808;28;20114;-63
2022/06/28 03:06:53;;;;;;;3.38;1.35;;;23.20;58.60;;;;;;5029740;28;20045;-62
2022/06/28 03:09:18;;;;;;;2.75;1.20;;;23.20;58.60;;;;;;5029562;28;20037;-62
2022/06/28 03:11:44;;;;;;;1.85;1.20;;;23.20;58.60;;;;;;5030857;28;20033;-61
2022/06/28 03:14:10;;;;;;;1.80;1.20;;;23.20;58.60;;;;;;5031688;28;20315;-61
2022/06/28 03:16:35;;;;;;;1.60;1.27;;;23.30;58.50;;;;;;5011773;28;20052;-61
2022/06/28 03:19:01;;;;;;;2.35;1.20;;;23.20;59.20;;;;;;5026876;28;20044;-62
2022/06/28 03:21:27;;;;;;;1.88;1.10;;;23.20;58.50;;;;;;5030357;28;20034;-61
2022/06/28 03:23:52;;;;;;;1.10;0.93;;;23.20;58.50;;;;;;5030868;28;20041;-64
2022/06/28 03:26:18;;;;;;;0.93;0.80;;;23.20;58.50;;;;;;5029861;28;20045;-63
2022/06/28 03:28:43;;;;;;;1.25;1.15;;;23.20;58.40;;;;;;5029484;28;20083;-62
2022/06/28 03:31:09;;;;;;;1.60;0.90;;;23.20;58.40;;;;;;5028688;28;20043;-61
2022/06/28 03:33:35;;;;;;;1.63;1.27;;;23.20;58.40;;;;;;5026648;28;20034;-62
2022/06/28 03:36:00;;;;;;;1.83;1.10;;;23.20;58.40;;;;;;5010579;28;20045;-62
2022/06/28 03:38:26;;;;;;;2.70;1.00;;;23.20;58.40;;;;;;5010893;28;20432;-62
2022/06/28 03:40:52;;;;;;;2.75;1.20;;;23.20;58.40;;;;;;5012659;28;20401;-62
2022/06/28 03:43:17;;;;;;;1.85;0.88;;;23.20;58.30;;;;;;5010766;28;20523;-63
2022/06/28 03:45:43;;;;;;;1.40;1.30;;;23.20;58.20;;;;;;5031887;28;20509;-62
2022/06/28 03:48:09;;;;;;;1.10;0.90;;;23.20;58.20;;;;;;5015369;28;20045;-61
2022/06/28 03:50:34;;;;;;;1.52;1.10;;;23.20;58.20;;;;;;5030872;28;20029;-61
2022/06/28 03:53:00;;;;;;;1.40;1.20;;;23.20;58.20;;;;;;5032751;28;20042;-61
2022/06/28 03:55:26;;;;;;;1.55;1.30;;;23.20;58.10;;;;;;5034785;28;20033;-62
2022/06/28 03:57:51;;;;;;;1.15;1.05;;;23.20;58.20;;;;;;5034594;28;20191;-63
2022/06/28 04:00:17;;;;;;;1.65;1.30;;;23.20;58.10;;;;;;5031937;28;20068;-64
2022/06/28 04:02:44;;;;;;;1.02;1.00;;;23.20;57.80;;;;;;5030799;28;20068;-63
2022/06/28 04:05:09;;;;;;;1.48;1.23;;;23.20;57.90;;;;;;5010914;28;20033;-64
2022/06/28 04:07:35;;;;;;;2.20;1.20;;;23.20;57.90;;;;;;5031872;28;20039;-63
2022/06/28 04:10:01;;;;;;;2.85;1.20;;;23.20;57.90;;;;;;5033793;28;20068;-63
2022/06/28 04:12:26;;;;;;;4.10;1.40;;;23.20;57.90;;;;;;5013907;28;20041;-63
2022/06/28 04:14:52;;;;;;;1.63;1.30;;;23.20;57.70;;;;;;5031997;28;20033;-63
2022/06/28 04:17:18;;;;;;;2.25;1.60;;;23.20;57.70;;;;;;5032395;28;20053;-64
2022/06/28 04:19:43;;;;;;;6.15;1.73;;;23.10;57.50;;;;;;5031628;28;20041;-62
2022/06/28 04:22:09;;;;;;;7.93;1.50;;;23.20;57.50;;;;;;5030889;28;20041;-63
2022/06/28 04:24:35;;;;;;;8.70;1.88;;;23.20;57.50;;;;;;5032503;28;20112;-64
2022/06/28 04:27:02;;;;;;;6.13;1.40;;;23.20;57.70;;;;;;5034019;28;20661;-64
2022/06/28 04:29:27;;;;;;;6.55;1.83;;;23.10;57.60;;;;;;5033111;28;20913;-63
2022/06/28 04:31:53;;;;;;;2.83;1.35;;;23.20;57.60;;;;;;5030882;28;20048;-63
2022/06/28 04:34:19;;;;;;;5.70;1.23;;;23.10;57.60;;;;;;5031983;28;20068;-63
2022/06/28 04:36:44;;;;;;;3.20;1.35;;;23.10;57.50;;;;;;5032238;28;20095;-63
2022/06/28 04:39:10;;;;;;;3.90;1.52;;;23.10;57.60;;;;;;5031986;28;20033;-63
2022/06/28 04:41:36;;;;;;;1.60;1.30;;;23.10;57.60;;;;;;5016635;28;20474;-64
2022/06/28 04:44:01;;;;;;;4.43;1.60;;;23.20;57.70;;;;;;5032354;28;20512;-63
2022/06/28 04:46:28;;;;;;;5.13;1.65;;;23.10;57.70;;;;;;5014707;28;20489;-63
2022/06/28 04:48:54;;;;;;;1.95;1.05;;;23.20;57.70;;;;;;5029833;28;20067;-63
2022/06/28 04:51:19;;;;;;;2.35;1.40;;;23.10;57.70;;;;;;5031173;28;20704;-63
2022/06/28 04:53:47;;;;;;;2.65;1.48;;;23.20;57.70;;;;;;5012439;28;20072;-63
2022/06/28 04:56:14;;;;;;;4.47;1.30;;;23.10;57.70;;;;;;5029855;28;20045;-63
2022/06/28 04:58:40;;;;;;;6.72;1.65;;;23.10;57.70;;;;;;5033546;28;20055;-63
2022/06/28 05:01:06;;;;;;;4.75;1.58;;;23.20;57.80;;;;;;5030791;28;20037;-64
2022/06/28 05:03:31;;;;;;;2.22;1.58;;;23.10;57.70;;;;;;5032959;28;20095;-64
2022/06/28 05:05:57;;;;;;;4.95;1.42;;;23.10;58.00;;;;;;5032942;28;20505;-64
2022/06/28 05:08:23;;;;;;;4.85;1.60;;;23.10;57.90;;;;;;5028353;28;20148;-62
2022/06/28 05:10:49;;;;;;;6.15;2.00;;;23.20;58.00;;;;;;5029559;28;20040;-62
2022/06/28 05:13:15;;;;;;;6.80;1.90;;;23.10;57.90;;;;;;5032864;28;20037;-65
2022/06/28 05:15:40;;;;;;;4.10;1.40;;;23.20;57.90;;;;;;5033639;28;20674;-60
2022/06/28 05:18:06;;;;;;;4.13;1.55;;;23.10;57.70;;;;;;5034278;28;20037;-60
2022/06/28 05:20:32;;;;;;;2.83;1.83;;;23.20;57.70;;;;;;5031658;28;20211;-63
2022/06/28 05:22:57;;;;;;;2.90;1.80;;;23.20;57.70;;;;;;5031630;28;20045;-61
2022/06/28 05:25:25;;;;;;;3.95;1.60;;;23.10;57.60;;;;;;5029184;28;21478;-59
2022/06/28 05:27:51;;;;;;;4.18;1.60;;;23.10;57.70;;;;;;5029938;28;20073;-59
2022/06/28 05:30:17;;;;;;;3.55;1.70;;;23.10;57.70;;;;;;5030971;28;20060;-60
2022/06/28 05:32:43;;;;;;;3.20;1.10;;;23.10;57.70;;;;;;5031491;28;20409;-60
2022/06/28 05:35:09;;;;;;;3.53;1.40;;;23.10;57.70;;;;;;5012334;28;20041;-62
2022/06/28 05:37:35;;;;;;;4.47;1.42;;;23.10;57.80;;;;;;5030007;28;20441;-61
2022/06/28 05:40:01;;;;;;;8.10;1.75;;;23.10;57.90;;;;;;5028830;28;20037;-60
2022/06/28 05:42:27;;;;;;;3.60;2.13;;;23.10;57.90;;;;;;5009141;28;20224;-61
2022/06/28 05:44:52;;;;;;;7.88;1.70;;;23.10;57.90;;;;;;5029373;28;20801;-60
2022/06/28 05:47:18;;;;;;;3.60;1.80;;;23.10;57.80;;;;;;5012463;28;20041;-62
2022/06/28 05:49:43;;;;;;;5.22;1.50;;;23.10;58.00;;;;;;5013922;28;20360;-60
2022/06/28 05:52:09;;;;;;;4.80;1.40;;;23.10;58.00;;;;;;5032890;28;20128;-62
2022/06/28 05:54:35;;;;;;;3.92;1.48;;;23.10;58.10;;;;;;5029044;28;20486;-61
2022/06/28 05:57:01;;;;;;;3.35;1.40;;;23.10;58.20;;;;;;5032581;28;20045;-62
2022/06/28 05:59:27;;;;;;;6.70;1.98;;;23.10;58.20;;;;;;5032264;28;20386;-61
2022/06/28 06:01:55;;;;;;;9.35;1.85;;;23.10;58.20;;;;;;5030935;28;20037;-62
2022/06/28 06:04:22;;;;;;;5.32;1.75;;;23.10;58.10;;;;;;5013234;28;20469;-60
2022/06/28 06:06:47;;;;;;;10.38;2.00;;;23.10;58.20;;;;;;5032868;28;20500;-60
2022/06/28 06:09:13;;;;;;;3.47;1.88;;;23.10;58.20;;;;;;5028671;28;20037;-62
2022/06/28 06:11:39;;;;;;;6.22;1.58;;;23.10;58.20;;;;;;5031309;28;20030;-60
2022/06/28 06:14:05;;;;;;;6.80;1.50;;;23.10;58.20;;;;;;5028825;28;20509;-61
2022/06/28 06:16:31;;;;;;;10.02;1.67;;;23.10;58.20;;;;;;5029232;28;20070;-61
2022/06/28 06:18:57;;;;;;;5.28;1.90;;;23.20;58.30;;;;;;5030891;28;20715;-61
2022/06/28 06:21:23;;;;;;;5.68;1.63;;;23.10;58.30;;;;;;5028800;28;20045;-61
2022/06/28 06:23:48;;;;;;;5.35;1.25;;;23.10;58.30;;;;;;5030231;28;20117;-61
2022/06/28 06:26:14;;;;;;;4.55;1.38;;;23.10;58.30;;;;;;5028795;28;20041;-61
2022/06/28 06:28:39;;;;;;;3.13;1.48;;;23.10;58.40;;;;;;5030105;28;20526;-60
2022/06/28 06:31:07;;;;;;;2.67;1.35;;;23.10;58.40;;;;;;5032503;28;20033;-64
2022/06/28 06:33:34;;;;;;;6.28;1.95;;;23.10;58.50;;;;;;5012386;28;20037;-63
2022/06/28 06:35:59;;;;;;;3.42;1.38;;;23.10;58.50;;;;;;5031458;28;20038;-64
2022/06/28 06:38:25;;;;;;;5.88;1.20;;;23.10;58.60;;;;;;5029701;28;20056;-64
2022/06/28 06:40:51;;;;;;;4.60;1.10;;;23.10;58.60;;;;;;5031733;28;20032;-63
2022/06/28 06:43:16;;;;;;;3.20;1.40;;;23.20;58.70;;;;;;5012956;28;20462;-61
2022/06/28 06:45:42;;;;;;;2.90;1.60;;;23.20;58.80;;;;;;5004257;28;20110;-62
2022/06/28 06:48:08;;;;;;;5.15;1.33;;;23.20;58.90;;;;;;4994336;28;20061;-61
2022/06/28 06:50:34;;;;;;;5.28;1.45;;;23.20;59.10;;;;;;4972417;28;20066;-62
2022/06/28 06:53:02;;;;;;;2.60;1.30;;;23.20;59.00;;;;;;4990034;28;20033;-61
2022/06/28 06:55:28;;;;;;;3.15;1.23;;;23.20;59.00;;;;;;4990343;28;20092;-62
2022/06/28 06:57:54;;;;;;;6.80;1.33;;;23.20;58.90;;;;;;4984488;28;20136;-62
2022/06/28 07:00:19;;;;;;;4.75;1.30;;;23.20;59.00;;;;;;4990859;28;20550;-64
2022/06/28 07:02:45;;;;;;;5.00;1.48;;;23.20;59.00;;;;;;4991125;28;20538;-63
2022/06/28 07:05:11;;;;;;;4.70;1.30;;;23.20;59.20;;;;;;4990734;28;20090;-63
2022/06/28 07:07:37;;;;;;;5.70;1.38;;;23.20;59.60;;;;;;4968124;28;20374;-63
2022/06/28 07:10:03;;;;;;;2.80;1.00;;;23.20;59.80;;;;;;4986300;28;20031;-64
2022/06/28 07:12:30;;;;;;;5.18;1.33;;;23.30;59.90;;;;;;4988665;28;20046;-63
2022/06/28 07:14:55;;;;;;;3.58;1.30;;;23.30;60.00;;;;;;4989072;28;20034;-63
2022/06/28 07:17:21;;;;;;;5.00;1.48;;;23.30;59.80;;;;;;4986445;28;20050;-62
2022/06/28 07:19:47;;;;;;;5.07;1.30;;;23.30;59.80;;;;;;4993550;28;20038;-67
2022/06/28 07:22:13;;;;;;;3.60;1.27;;;23.30;59.80;;;;;;4993207;28;20527;-64
2022/06/28 07:24:38;;;;;;;2.75;1.17;;;23.30;59.80;;;;;;4991569;28;20038;-62
2022/06/28 07:27:04;;;;;;;3.70;1.17;;;23.30;59.80;;;;;;4980001;28;20034;-63
2022/06/28 07:29:30;;;;;;;6.72;1.75;;;23.30;59.80;;;;;;4993575;28;20131;-60
2022/06/28 07:31:56;;;;;;;6.32;1.50;;;23.30;59.70;;;;;;4993900;28;20491;-63
2022/06/28 07:34:23;;;;;;;3.78;1.55;;;23.30;59.70;;;;;;4975078;28;20046;-64
2022/06/28 07:36:49;;;;;;;5.00;1.30;;;23.30;59.80;;;;;;4988697;28;20092;-64
2022/06/28 07:39:14;;;;;;;12.73;1.52;;;23.30;59.90;;;;;;4996930;28;20482;-64
2022/06/28 07:41:40;;;;;;;7.80;1.60;;;23.30;60.10;;;;;;4990485;28;20511;-64
2022/06/28 07:44:06;;;;;;;10.32;1.40;;;23.30;60.10;;;;;;4977534;28;20519;-64
2022/06/28 07:46:32;;;;;;;4.55;1.20;;;23.30;60.10;;;;;;4989209;28;20086;-63
2022/06/28 07:48:58;;;;;;;5.90;1.42;;;23.30;60.20;;;;;;5008155;28;20046;-63
2022/06/28 07:54:08;;;;;;;6.35;1.65;;;23.30;60.20;;;;;;5010464;28;20037;-61
2022/06/28 07:56:33;;;;;;;4.78;1.40;;;23.30;60.20;;;;;;5009472;28;20375;-61
2022/06/28 07:58:59;;;;;;;5.50;1.73;;;23.30;60.00;;;;;;4992772;28;20544;-60
2022/06/28 08:01:25;;;;;;;5.68;1.45;;;23.30;60.00;;;;;;5016055;28;20054;-62
2022/06/28 08:03:51;;;;;;;2.67;1.15;;;23.30;60.00;;;;;;4993932;28;20549;-63
2022/06/28 08:06:16;;;;;;;4.20;1.20;;;23.30;60.00;;;;;;4995929;28;20121;-62
2022/06/28 08:08:43;;;;;;;3.20;1.40;;;23.30;60.00;;;;;;4993131;28;20062;-62
2022/06/28 08:11:10;;;;;;;5.53;1.70;;;23.30;60.00;;;;;;4978194;28;20041;-63
2022/06/28 08:13:37;;;;;;;4.22;1.27;;;23.30;59.90;;;;;;5007348;28;20120;-62
2022/06/28 08:16:04;;;;;;;3.45;1.30;;;23.30;59.90;;;;;;5013225;28;20034;-65
2022/06/28 08:18:29;;;;;;;11.45;1.95;;;23.30;59.80;;;;;;5011103;28;20065;-64
2022/06/28 08:20:55;;;;;;;8.75;1.67;;;23.30;60.00;;;;;;5012723;28;20753;-61
2022/06/28 08:23:21;;;;;;;4.90;1.77;;;23.30;60.60;;;;;;5010725;28;20156;-62
2022/06/28 08:25:47;;;;;;;6.63;1.50;;;23.30;60.90;;;;;;5007742;28;20052;-62
2022/06/28 08:28:13;;;;;;;7.95;1.80;;;23.30;61.00;;;;;;4992104;28;20384;-62
2022/06/28 08:30:40;;;;;;;6.63;1.40;;;23.40;61.40;;;;;;5010404;28;20038;-61
2022/06/28 08:33:06;;;;;;;8.95;1.65;;;23.40;61.30;;;;;;4993762;28;20048;-64
2022/06/28 08:35:32;;;;;;;7.65;1.60;;;23.40;61.40;;;;;;4975106;28;20042;-62
2022/06/28 08:37:58;;;;;;;4.03;1.50;;;23.40;61.30;;;;;;5010497;28;20482;-62
2022/06/28 08:40:26;;;;;;;5.32;1.33;;;23.40;61.30;;;;;;4995859;28;20041;-62
2022/06/28 08:42:57;;;;;;;4.78;1.40;;;23.40;61.30;;;;;;5012890;28;20057;-62
2022/06/28 08:45:23;;;;;;;4.28;1.40;;;23.40;61.20;;;;;;5004863;28;20053;-63
2022/06/28 08:47:54;;;;;;;4.50;1.40;;;23.40;61.30;;;;;;4991201;28;20056;-61
2022/06/28 08:50:30;;;;;;;8.07;1.63;;;23.40;61.30;;;;;;4997071;28;20121;-62
2022/06/28 08:52:57;;;;;;;5.70;1.23;;;23.40;61.30;;;;;;5010593;28;20060;-62
2022/06/28 08:55:23;;;;;;;4.35;1.35;;;23.40;61.20;;;;;;5010492;28;20394;-62
2022/06/28 08:57:49;;;;;;;5.22;1.55;;;23.40;61.90;;;;;;5004802;28;20174;-63
2022/06/28 09:00:15;;;;;;;3.40;1.30;;;23.40;61.10;;;;;;5007744;28;20033;-63
2022/06/28 09:02:40;;;;;;;6.97;1.42;;;23.40;61.10;;;;;;5009788;28;20470;-62
2022/06/28 09:05:06;;;;;;;4.07;1.30;;;23.40;61.10;;;;;;5009177;28;20040;-63
2022/06/28 09:07:32;;;;;;;4.35;0.95;;;23.40;61.00;;;;;;5009988;28;20080;-63
2022/06/28 09:09:58;;;;;;;5.18;1.27;;;23.40;61.00;;;;;;5008287;28;20045;-62
2022/06/28 09:12:24;;;;;;;2.17;1.00;;;23.40;61.00;;;;;;5008326;28;20450;-62
2022/06/28 09:14:49;;;;;;;6.05;1.42;;;23.40;60.90;;;;;;5009118;28;20383;-62
2022/06/28 09:17:24;;;;;;;2.53;0.95;;;23.40;60.90;;;;;;5012976;28;20128;-63
2022/06/28 09:19:58;;;;;;;3.97;1.45;;;23.40;60.80;;;;;;5009525;28;20116;-61
2022/06/28 09:22:34;;;;;;;4.47;1.48;;;23.40;60.70;;;;;;5006419;28;20088;-62
2022/06/28 09:25:05;;;;;;;4.03;1.10;;;23.40;60.50;;;;;;5011679;28;20116;-61
2022/06/28 09:27:36;;;;;;;4.78;1.27;;;23.40;61.10;;;;;;4981610;28;20042;-63
2022/06/28 09:30:11;;;;;;;5.20;1.38;;;23.40;60.20;;;;;;4985204;28;20033;-64
2022/06/28 09:32:39;;;;;;;6.03;1.42;;;23.40;60.10;;;;;;5033921;28;20041;-63
2022/06/28 09:35:06;;;;;;;6.82;1.48;;;23.40;60.00;;;;;;4996470;28;20046;-64
2022/06/28 09:37:49;;;;;;;8.35;1.25;;;23.40;59.90;;;;;;5031145;28;20041;-62
2022/06/28 09:40:26;;;;;;;4.72;1.10;;;23.40;59.90;;;;;;5029670;28;20068;-64
2022/06/28 09:43:08;;;;;;;4.43;1.10;;;23.40;59.80;;;;;;5030690;28;20045;-64
2022/06/28 09:45:37;;;;;;;3.05;0.90;;;23.40;59.40;;;;;;5011593;28;20106;-63
2022/06/28 09:48:04;;;;;;;3.13;0.93;;;23.30;59.50;;;;;;5032594;28;20050;-62
2022/06/28 09:50:32;;;;;;;3.83;1.20;;;23.30;59.40;;;;;;5030873;28;20548;-63
2022/06/28 09:53:00;;;;;;;4.65;1.40;;;23.30;59.50;;;;;;5014816;28;20077;-62
2022/06/28 09:55:29;;;;;;;4.55;1.10;;;23.30;59.20;;;;;;5028422;28;20045;-61
2022/06/28 09:57:55;;;;;;;5.00;1.33;;;23.40;59.30;;;;;;5029623;28;20080;-62
2022/06/28 10:00:21;;;;;;;2.75;0.98;;;23.30;59.20;;;;;;5031126;28;20084;-61
2022/06/28 10:02:47;;;;;;;2.80;1.00;;;23.40;59.20;;;;;;5014267;28;20057;-63
2022/06/28 10:05:14;;;;;;;2.80;1.00;;;23.30;59.00;;;;;;5031935;28;20051;-63
2022/06/28 10:07:40;;;;;;;3.15;0.90;;;23.30;59.00;;;;;;5010018;28;20041;-62
2022/06/28 10:10:09;;;;;;;2.88;0.93;;;23.40;58.80;;;;;;5030993;28;20033;-61
2022/06/28 10:15:25;;;;;;;1.30;0.85;;;23.30;58.60;;;;;;5010839;28;20106;-60
2022/06/28 10:18:10;;;;;;;4.35;0.90;;;23.30;58.60;;;;;;5031517;28;20095;-61
2022/06/28 10:20:38;;;;;;;1.40;0.73;;;23.30;58.30;;;;;;5027213;28;20876;-63
2022/06/28 10:23:27;;;;;;;2.17;0.88;;;23.30;58.40;;;;;;5027397;28;20092;-62
2022/06/28 10:26:11;;;;;;;2.88;1.00;;;23.30;58.20;;;;;;5028725;28;20506;-61
2022/06/28 10:28:40;;;;;;;2.05;0.82;;;23.30;58.10;;;;;;5011159;28;20045;-62
2022/06/28 10:31:21;;;;;;;3.08;0.90;;;23.30;58.30;;;;;;5011542;28;20051;-62
2022/06/28 10:33:48;;;;;;;3.40;1.13;;;23.30;58.10;;;;;;5030072;28;20190;-61
2022/06/28 10:36:15;;;;;;;2.60;0.93;;;23.30;58.10;;;;;;5015021;28;20047;-61
2022/06/28 10:39:06;;;;;;;2.42;0.90;;;23.30;58.10;;;;;;5030192;28;20124;-61
2022/06/28 10:42:04;;;;;;;2.25;0.90;;;23.30;57.90;;;;;;5029722;28;20203;-61
2022/06/28 10:44:32;;;;;;;3.15;0.90;;;23.30;57.80;;;;;;5014744;28;20058;-61
2022/06/28 10:47:01;;;;;;;3.17;0.80;;;23.30;58.10;;;;;;5030673;28;20060;-61
2022/06/28 10:49:57;;;;;;;4.15;1.02;;;23.30;57.90;;;;;;5027725;28;20060;-61
2022/06/28 10:52:35;;;;;;;2.97;1.00;;;23.30;57.70;;;;;;5027153;28;20278;-61
2022/06/28 10:55:03;;;;;;;2.33;0.73;;;23.20;57.90;;;;;;5029545;28;20697;-60
2022/06/28 10:57:35;;;;;;;2.28;0.80;;;23.30;57.90;;;;;;5031128;28;20497;-61
2022/06/28 11:00:06;;;;;;;4.20;1.10;;;23.30;58.10;;;;;;5029617;28;20052;-61
2022/06/28 11:02:48;;;;;;;2.15;1.00;;;23.30;57.70;;;;;;5029209;28;20045;-62
2022/06/28 11:05:14;;;;;;;2.17;0.93;;;23.30;57.70;;;;;;5028622;28;20444;-62
2022/06/28 11:07:40;;;;;;;2.33;0.70;;;23.30;57.60;;;;;;5028457;28;20124;-61
2022/06/28 11:10:11;;;;;;;2.20;0.80;;;23.30;57.50;;;;;;5029689;28;20029;-64
2022/06/28 11:12:39;;;;;;;;;;;23.30;57.50;;;;;;5027377;28;20840;-61
2022/06/28 11:15:05;;;;;;;1.92;0.77;;;23.30;57.10;;;;;;5011322;28;20029;-61
2022/06/28 11:17:37;;;;;;;2.22;0.80;;;23.30;57.70;;;;;;4994216;28;20042;-61
2022/06/28 11:20:14;;;;;;;2.60;0.90;;;23.30;57.40;;;;;;4994479;28;20049;-61
2022/06/28 11:22:47;;;;;;;1.15;0.70;;;23.30;57.50;;;;;;5031569;28;20417;-61
2022/06/28 11:25:21;;;;;;;3.03;0.90;;;23.30;57.30;;;;;;4977394;28;20060;-61
2022/06/28 11:27:56;;;;;;;2.15;0.60;;;23.30;57.20;;;;;;5029906;28;20517;-62
2022/06/28 11:30:28;;;;;;;2.38;0.88;;;23.30;57.20;;;;;;5031195;28;20061;-61
2022/06/28 11:32:59;;;;;;;2.58;0.73;;;23.30;56.80;;;;;;5027924;28;20543;-63
2022/06/28 11:35:30;;;;;;;1.75;0.88;;;23.30;56.30;;;;;;5027750;28;20037;-62
2022/06/28 11:38:01;;;;;;;;;;;23.30;56.50;;;;;;5029692;28;20091;-64
2022/06/28 11:40:43;;;;;;;3.83;1.02;;;23.30;56.10;;;;;;5029814;28;20348;-62
2022/06/28 11:43:15;;;;;;;1.35;0.63;;;23.30;56.50;;;;;;5029319;28;20045;-62
2022/06/28 11:45:48;;;;;;;1.80;0.75;;;23.30;56.50;;;;;;5023383;28;20119;-62
2022/06/28 11:48:19;;;;;;;2.45;0.90;;;23.30;56.50;;;;;;5027429;28;20073;-65
2022/06/28 11:50:47;;;;;;;2.20;0.80;;;23.30;56.40;;;;;;5030474;28;20480;-62
2022/06/28 11:53:14;;;;;;;3.15;0.82;;;23.30;56.30;;;;;;5029630;28;20042;-60
2022/06/28 11:55:50;;;;;;;1.33;0.70;;;23.30;56.30;;;;;;5011793;28;20056;-59
2022/06/28 11:58:27;;;;;;;2.63;1.00;;;23.30;56.10;;;;;;5030657;28;20447;-62
2022/06/28 12:01:08;;;;;;;2.22;1.00;;;23.30;56.10;;;;;;5027493;28;20049;-60
2022/06/28 12:03:43;;;;;;;3.88;0.90;;;23.30;56.00;;;;;;5027980;28;20045;-61
2022/06/28 12:06:11;;;;;;;2.35;0.60;;;23.30;55.70;;;;;;5029185;28;20049;-60
2022/06/28 12:08:49;;;;;;;1.83;0.77;;;23.30;55.60;;;;;;5031889;28;20095;-61
2022/06/28 12:11:33;;;;;;;2.25;0.70;;;23.30;55.60;;;;;;5015929;28;20065;-62
2022/06/28 12:14:14;;;;;;;3.28;1.05;;;23.30;55.30;;;;;;5016567;28;20132;-63
2022/06/28 12:16:55;;;;;;;;;;;23.30;55.60;;;;;;5033417;28;20044;-62
2022/06/28 12:19:35;;;;;;;2.17;0.70;;;23.30;55.10;;;;;;5033220;28;19921;-61
2022/06/28 12:22:03;;;;;;;2.22;0.90;;;23.20;55.20;;;;;;5016174;28;20047;-64
2022/06/28 12:24:47;;;;;;;1.67;0.90;;;23.20;55.30;;;;;;5013164;28;20053;-63
2022/06/28 12:27:21;;;;;;;2.60;0.90;;;23.30;55.20;;;;;;5032304;28;20043;-61
2022/06/28 12:29:48;;;;;;;1.45;0.60;;;23.30;55.20;;;;;;5031620;28;20061;-62
2022/06/28 12:32:14;;;;;;;3.47;0.90;;;23.30;55.00;;;;;;5032557;28;20411;-63
2022/06/28 12:34:40;;;;;;;2.42;0.85;;;23.30;54.80;;;;;;5035014;28;20143;-64
2022/06/28 12:37:09;;;;;;;2.70;1.20;;;23.30;54.70;;;;;;5033711;28;20041;-64
2022/06/28 12:39:35;;;;;;;2.72;0.95;;;23.30;54.70;;;;;;5031356;28;20715;-61
2022/06/28 12:42:01;;;;;;;1.35;0.88;;;23.30;55.10;;;;;;5032001;28;20111;-62
2022/06/28 12:44:26;;;;;;;1.92;0.80;;;23.30;54.70;;;;;;5012311;28;20853;-62
2022/06/28 12:46:52;;;;;;;2.08;0.65;;;23.30;54.70;;;;;;5033269;28;20099;-63
2022/06/28 12:49:22;;;;;;;2.03;0.80;;;23.30;54.70;;;;;;5014621;28;21070;-63
2022/06/28 12:51:48;;;;;;;2.20;0.68;;;23.30;54.80;;;;;;5015124;28;20036;-62
2022/06/28 12:54:14;;;;;;;1.45;0.60;;;23.30;54.90;;;;;;5033506;28;20091;-63
2022/06/28 12:56:41;;;;;;;1.05;0.57;;;23.30;55.00;;;;;;5030796;28;20041;-62
2022/06/28 12:59:07;;;;;;;1.27;0.80;;;23.30;55.00;;;;;;5029594;28;20447;-64
2022/06/28 13:01:33;;;;;;;1.45;0.77;;;23.40;55.00;;;;;;5032108;28;20045;-65
2022/06/28 13:03:58;;;;;;;2.05;0.70;;;23.40;55.10;;;;;;5032450;28;20524;-63
2022/06/28 13:06:24;;;;;;;2.17;0.80;;;23.40;55.00;;;;;;5031195;28;20068;-62